Susan Morrison — WDC7426 — position and weather

sailwx.info

Track history (hours):
 
Tides and Currents Weather Stations Pressure Air Temp Water Temp Dewpoint Dewpoint Depression Visibility Wind Speed Wind Dir Waves Ship Positions

Susan Morrison

Owner: Chet Morrison Contractors Inc., Houma, LA. More information available from US FCC via Universal Licensing System and Coast Guard Vessel Documentation Center.

Last reported at 2018-Feb-19 17:26 UTC. Time now 2018-Feb-20 15:02 UTC.
Position N 29°36' W 090°58'.

Length 15 m; draft 3.1 m.

Type: Towing. MMSI: 367071230.

Date/timePositionNaut miles runAvg speedWind from/ knotsBaromVisibWave heightAir tempDewpointWater temp
2018-Feb-19 17:26N 29°36' W 090°58'3 6.9
2018-Feb-19 16:56N 29°33' W 090°55'3 7.3
2018-Feb-19 16:29N 29°32' W 090°52'4 7.3
2018-Feb-19 16:00N 29°32' W 090°48'3 6.4
2018-Feb-19 15:30N 29°34' W 090°45'2 3.2
2018-Feb-19 15:00N 29°34' W 090°43'1 0.9
2018-Feb-19 14:20N 29°34' W 090°43'0 0.0
2018-Feb-17 11:36N 29°34' W 090°43'0 0.0
2018-Feb-17 11:30N 29°34' W 090°43'0 0.0
2018-Feb-17 11:00N 29°34' W 090°43'0 0.0
2018-Feb-17 10:30N 29°34' W 090°43'0 0.0
2018-Feb-17 10:00N 29°34' W 090°43'0 0.0
2018-Feb-17 09:30N 29°34' W 090°43'0 0.0
2018-Feb-17 09:00N 29°34' W 090°43'0 0.0
2018-Feb-17 08:30N 29°34' W 090°43'0 0.0
2018-Feb-17 08:00N 29°34' W 090°43'0 0.0
2018-Feb-17 07:30N 29°34' W 090°43'0 0.0
2018-Feb-17 07:00N 29°34' W 090°43'0 0.0
2018-Feb-17 06:30N 29°34' W 090°43'0 0.0
2018-Feb-17 06:00N 29°34' W 090°43'0 0.0
2018-Feb-17 05:30N 29°34' W 090°43'0 0.0
2018-Feb-17 05:00N 29°34' W 090°43'0 0.0
2018-Feb-17 04:30N 29°34' W 090°43'0 0.0
2018-Feb-17 04:00N 29°34' W 090°43'0 0.0
2018-Feb-17 03:30N 29°34' W 090°43'0 0.0
2018-Feb-17 03:00N 29°34' W 090°43'0 0.0
2018-Feb-17 02:30N 29°34' W 090°43'0 0.0
2018-Feb-17 02:00N 29°34' W 090°43'1 2.3
2018-Feb-17 01:30N 29°33' W 090°42'2 3.3
2018-Feb-17 01:00N 29°35' W 090°43'2 3.8
2018-Feb-17 00:30N 29°34' W 090°45'3 7.0
2018-Feb-17 00:00N 29°32' W 090°48'  
2018-Feb-14 17:49N 29°34' W 090°57'2 6.6
2018-Feb-14 17:29N 29°33' W 090°55'3 6.6
2018-Feb-14 16:58N 29°32' W 090°51'3 6.7
2018-Feb-14 16:30N 29°32' W 090°47'3 5.8
2018-Feb-14 16:00N 29°34' W 090°45'1 2.4
2018-Feb-14 15:30N 29°34' W 090°43'0 0.6
2018-Feb-14 15:00N 29°34' W 090°43'0 0.8
2018-Feb-14 14:28N 29°34' W 090°43'  
Track history (hours):
 
Tides and Currents Weather Stations Pressure Air Temp Water Temp Dewpoint Dewpoint Depression Visibility Wind Speed Wind Dir Waves Ship Positions

Susan Morrison

Owner: Chet Morrison Contractors Inc., Houma, LA. More information available from US FCC via Universal Licensing System and Coast Guard Vessel Documentation Center.

Last reported at 2018-Feb-19 17:26 UTC. Time now 2018-Feb-20 15:02 UTC.
Position N 29°36' W 090°58'.

Length 15 m; draft 3.1 m.

Type: Towing. MMSI: 367071230.

Date/timePositionNaut miles runAvg speedWind from/ knotsBaromVisibWave heightAir tempDewpointWater temp
2018-Feb-19 17:26N 29°36' W 090°58'3 6.9
2018-Feb-19 16:56N 29°33' W 090°55'3 7.3
2018-Feb-19 16:29N 29°32' W 090°52'4 7.3
2018-Feb-19 16:00N 29°32' W 090°48'3 6.4
2018-Feb-19 15:30N 29°34' W 090°45'2 3.2
2018-Feb-19 15:00N 29°34' W 090°43'1 0.9
2018-Feb-19 14:20N 29°34' W 090°43'0 0.0
2018-Feb-17 11:36N 29°34' W 090°43'0 0.0
2018-Feb-17 11:30N 29°34' W 090°43'0 0.0
2018-Feb-17 11:00N 29°34' W 090°43'0 0.0
2018-Feb-17 10:30N 29°34' W 090°43'0 0.0
2018-Feb-17 10:00N 29°34' W 090°43'0 0.0
2018-Feb-17 09:30N 29°34' W 090°43'0 0.0
2018-Feb-17 09:00N 29°34' W 090°43'0 0.0
2018-Feb-17 08:30N 29°34' W 090°43'0 0.0
2018-Feb-17 08:00N 29°34' W 090°43'0 0.0
2018-Feb-17 07:30N 29°34' W 090°43'0 0.0
2018-Feb-17 07:00N 29°34' W 090°43'0 0.0
2018-Feb-17 06:30N 29°34' W 090°43'0 0.0
2018-Feb-17 06:00N 29°34' W 090°43'0 0.0
2018-Feb-17 05:30N 29°34' W 090°43'0 0.0
2018-Feb-17 05:00N 29°34' W 090°43'0 0.0
2018-Feb-17 04:30N 29°34' W 090°43'0 0.0
2018-Feb-17 04:00N 29°34' W 090°43'0 0.0
2018-Feb-17 03:30N 29°34' W 090°43'0 0.0
2018-Feb-17 03:00N 29°34' W 090°43'0 0.0
2018-Feb-17 02:30N 29°34' W 090°43'0 0.0
2018-Feb-17 02:00N 29°34' W 090°43'1 2.3
2018-Feb-17 01:30N 29°33' W 090°42'2 3.3
2018-Feb-17 01:00N 29°35' W 090°43'2 3.8
2018-Feb-17 00:30N 29°34' W 090°45'3 7.0
2018-Feb-17 00:00N 29°32' W 090°48'  
2018-Feb-14 17:49N 29°34' W 090°57'2 6.6
2018-Feb-14 17:29N 29°33' W 090°55'3 6.6
2018-Feb-14 16:58N 29°32' W 090°51'3 6.7
2018-Feb-14 16:30N 29°32' W 090°47'3 5.8
2018-Feb-14 16:00N 29°34' W 090°45'1 2.4
2018-Feb-14 15:30N 29°34' W 090°43'0 0.6
2018-Feb-14 15:00N 29°34' W 090°43'0 0.8
2018-Feb-14 14:28N 29°34' W 090°43'  

Dump ship's entire track history